Four Otello — ZGAP8 — position and weather

sailwx.info

Track history (hours):
 
Tides and Currents Weather Stations Pressure Air Temp Water Temp Dewpoint Dewpoint Depression Visibility Wind Speed Wind Dir Waves Ship Positions

Four Otello

Last reported at 2017-Oct-31 04:00 UTC. Time now 2017-Nov-18 01:10 UTC.
Position N 40°45' E 029°33'.
Warning: this ship's position is 17 days out of date.

Length 180 m; draft 7 m.

Type: Cargo ship. MMSI: 319030800.

Date/timePositionNaut miles runAvg speedWind from/ knotsBaromVisibWave heightAir tempDewpointWater temp
2017-Oct-31 04:00N 40°45' E 029°33'510.5
2017-Oct-31 03:30N 40°44' E 029°26'3 6.8
2017-Oct-31 03:00N 40°43' E 029°22'5 9.2
2017-Oct-31 02:30N 40°43' E 029°16'5 9.2
2017-Oct-31 02:00N 40°44' E 029°10'4 7.6
2017-Oct-31 01:30N 40°44' E 029°05'235 8.9
2017-Oct-29 23:02N 37°51' E 025°38'113.6
2017-Oct-29 22:59N 37°50' E 025°39'713.7
2017-Oct-29 22:30N 37°44' E 025°41'1513.6
2017-Oct-29 21:24N 37°29' E 025°47'513.0
2017-Oct-29 21:00N 37°25' E 025°48'  
2017-Oct-24 04:12N 35°50' E 030°23'  
2017-Oct-21 19:08N 36°12' E 014°51'213.7
2017-Oct-21 18:58N 36°12' E 014°48'713.8
2017-Oct-21 18:30N 36°13' E 014°40'713.8
2017-Oct-21 18:00N 36°13' E 014°31'713.6
2017-Oct-21 17:30N 36°13' E 014°23'713.5
2017-Oct-21 17:00N 36°15' E 014°15'713.3
2017-Oct-21 16:30N 36°18' E 014°07'713.3
2017-Oct-21 16:00N 36°20' E 013°60'713.1
2017-Oct-21 15:30N 36°23' E 013°52'613.1
2017-Oct-21 15:00N 36°25' E 013°45'  
Track history (hours):
 
Tides and Currents Weather Stations Pressure Air Temp Water Temp Dewpoint Dewpoint Depression Visibility Wind Speed Wind Dir Waves Ship Positions

Four Otello

Last reported at 2017-Oct-31 04:00 UTC. Time now 2017-Nov-18 01:10 UTC.
Position N 40°45' E 029°33'.
Warning: this ship's position is 17 days out of date.

Length 180 m; draft 7 m.

Type: Cargo ship. MMSI: 319030800.

Date/timePositionNaut miles runAvg speedWind from/ knotsBaromVisibWave heightAir tempDewpointWater temp
2017-Oct-31 04:00N 40°45' E 029°33'510.5
2017-Oct-31 03:30N 40°44' E 029°26'3 6.8
2017-Oct-31 03:00N 40°43' E 029°22'5 9.2
2017-Oct-31 02:30N 40°43' E 029°16'5 9.2
2017-Oct-31 02:00N 40°44' E 029°10'4 7.6
2017-Oct-31 01:30N 40°44' E 029°05'235 8.9
2017-Oct-29 23:02N 37°51' E 025°38'113.6
2017-Oct-29 22:59N 37°50' E 025°39'713.7
2017-Oct-29 22:30N 37°44' E 025°41'1513.6
2017-Oct-29 21:24N 37°29' E 025°47'513.0
2017-Oct-29 21:00N 37°25' E 025°48'  
2017-Oct-24 04:12N 35°50' E 030°23'  
2017-Oct-21 19:08N 36°12' E 014°51'213.7
2017-Oct-21 18:58N 36°12' E 014°48'713.8
2017-Oct-21 18:30N 36°13' E 014°40'713.8
2017-Oct-21 18:00N 36°13' E 014°31'713.6
2017-Oct-21 17:30N 36°13' E 014°23'713.5
2017-Oct-21 17:00N 36°15' E 014°15'713.3
2017-Oct-21 16:30N 36°18' E 014°07'713.3
2017-Oct-21 16:00N 36°20' E 013°60'713.1
2017-Oct-21 15:30N 36°23' E 013°52'613.1
2017-Oct-21 15:00N 36°25' E 013°45'  

Dump ship's entire track history